Flight Track Log - Related Links

Times and Time Zones

All times are in EDT time to prevent confusion due to time zone crossing. See the UPS1057 flight status page for this flight to view local times or setup timezone preferences in your user account.

Time Position Orientation Groundspeed Altitude Reporting Facility
EDT Latitude Longitude Course Direction KTS MPH feet Rate Location/Type
Fri 11:12:54 PM 42.9550 -71.4230 21° North 141 162 1,600  Level FlightAware ADS-B
Fri 11:13:09 PM 42.9640 -71.4190 18° North 152 175 2,100 1,610 Climbing FlightAware ADS-B
Fri 11:13:35 PM 42.9850 -71.4080 21° North 206 237 2,700 1,320 Climbing FlightAware ADS-B
Fri 11:13:59 PM 43.0070 -71.3960 22° Northeast 245 282 3,200 2,939 Climbing FlightAware ADS-B
Fri 11:14:24 PM 43.0390 -71.3780 22° Northeast 263 303 5,100 3,818 Climbing FlightAware ADS-B
Fri 11:14:54 PM 43.0730 -71.3630 18° North 273 314 6,700 3,474 Climbing FlightAware ADS-B
Fri 11:15:21 PM 43.1080 -71.3820 338° Northwest 291 335 8,400 3,692 Climbing FlightAware ADS-B
Fri 11:15:33 PM 43.1170 -71.3990 306° West 291 335 9,100 3,214 Climbing FlightAware ADS-B
Fri 11:15:49 PM 43.1230 -71.4260 287° West 296 341 9,900 2,172 Climbing FlightAware ADS-B
Fri 11:16:31 PM 43.1180 -71.5120 265° West 346 398 11,200 1,884 Climbing FlightAware ADS-B
Fri 11:17:15 PM 43.1140 -71.6140 267° West 390 449 12,600 2,386 Climbing FlightAware ADS-B
Fri 11:17:54 PM 43.1100 -71.7120 267° West 403 464 14,500 2,857 Climbing FlightAware ADS-B
Fri 11:18:39 PM 43.1020 -71.8310 265° West 416 479 16,600 2,883 Climbing FlightAware ADS-B
Fri 11:19:11 PM 43.0970 -71.9120 265° West 416 479 18,200 2,842 Climbing FlightAware ADS-B
Fri 11:19:55 PM 43.0890 -72.0310 265° West 424 488 20,200 2,500 Climbing FlightAware ADS-B
Fri 11:20:35 PM 43.0810 -72.1370 264° West 432 497 21,700 2,211 Climbing FlightAware ADS-B
Fri 11:21:11 PM 43.0750 -72.2380 265° West 442 509 23,000 2,132 Climbing FlightAware ADS-B
Fri 11:21:51 PM 43.0670 -72.3500 264° West 447 514 24,400 1,923 Climbing FlightAware ADS-B
Fri 11:22:29 PM 43.0600 -72.4560 265° West 454 522 25,500 1,714 Climbing FlightAware ADS-B
Fri 11:23:15 PM 43.0320 -72.5790 253° West 460 529 26,800 2,000 Climbing FlightAware ADS-B
Fri 11:23:59 PM 42.9910 -72.7000 245° Southwest 457 526 28,500 2,127 Climbing FlightAware ADS-B
Fri 11:24:34 PM 42.9650 -72.7760 245° Southwest 455 524 29,600 2,286 Climbing FlightAware ADS-B
Fri 11:25:23 PM 42.9180 -72.9130 245° Southwest 439 505 31,700 2,259 Climbing FlightAware ADS-B
Fri 11:25:59 PM 42.8880 -73.0000 245° Southwest 431 496 32,800 1,703 Climbing FlightAware ADS-B
Fri 11:26:37 PM 42.8560 -73.0940 245° Southwest 429 494 33,800 923 Climbing FlightAware ADS-B
Fri 11:27:17 PM 42.8250 -73.1850 245° Southwest 428 493 34,000 148 Climbing FlightAware ADS-B
Fri 11:27:58 PM 42.7880 -73.2920 245° Southwest 428 493 34,000  Level FlightAware ADS-B
Fri 11:28:37 PM 42.7540 -73.3870 244° Southwest 427 491 34,000  Level FlightAware ADS-B
Fri 11:29:21 PM 42.7170 -73.4960 245° Southwest 427 491 34,000  Level FlightAware ADS-B
Fri 11:30:03 PM 42.6810 -73.6010 245° Southwest 428 493 34,000  Level FlightAware ADS-B
Fri 11:30:55 PM 42.6380 -73.7220 244° Southwest 428 493 34,000  Level FlightAware ADS-B
Fri 11:31:55 PM 42.5860 -73.8700 245° Southwest 429 494 34,000  Level FlightAware ADS-B
Fri 11:32:35 PM 42.5510 -73.9700 245° Southwest 429 494 34,000  Level FlightAware ADS-B
Fri 11:33:11 PM 42.5200 -74.0570 244° Southwest 429 494 34,000  Level FlightAware ADS-B
Fri 11:33:55 PM 42.4820 -74.1640 244° Southwest 429 494 34,000  Level FlightAware ADS-B
Fri 11:34:35 PM 42.4480 -74.2600 244° Southwest 427 491 34,000  Level FlightAware ADS-B
Fri 11:35:11 PM 42.4190 -74.3400 244° Southwest 427 491 34,000  Level FlightAware ADS-B
Fri 11:35:55 PM 42.3790 -74.4520 244° Southwest 425 489 34,000  Level FlightAware ADS-B
Fri 11:36:33 PM 42.3460 -74.5430 244° Southwest 426 490 34,000  Level FlightAware ADS-B
Fri 11:37:11 PM 42.3125 -74.6343 244° Southwest 428 493 34,000  Level FlightAware ADS-B
Fri 11:37:42 PM 42.2856 -74.7085 244° Southwest 427 491 34,000  Level FlightAware ADS-B
Fri 11:38:13 PM 42.2591 -74.7827 244° Southwest 428 493 34,000  Level FlightAware ADS-B
Fri 11:38:43 PM 42.2350 -74.8470 243° Southwest 427 491 34,000  Level FlightAware ADS-B
Fri 11:38:50 PM 42.2268 -74.8711 245° Southwest 428 493 34,000  Level FlightAware ADS-B
Fri 11:39:23 PM 42.1972 -74.9502 243° Southwest 428 493 34,000  Level FlightAware ADS-B
Fri 11:39:54 PM 42.1698 -75.0244 244° Southwest 428 493 34,000  Level FlightAware ADS-B
Fri 11:40:26 PM 42.1417 -75.1007 244° Southwest 428 493 34,000  Level FlightAware ADS-B
Fri 11:40:59 PM 42.1133 -75.1792 244° Southwest 426 490 34,000  Level FlightAware ADS-B
Fri 11:41:30 PM 42.0864 -75.2525 244° Southwest 424 488 34,000  Level FlightAware ADS-B
Fri 11:42:00 PM 42.0599 -75.3233 243° Southwest 424 488 34,000  Level FlightAware ADS-B
Fri 11:42:30 PM 42.0322 -75.3925 242° Southwest 422 486 34,000  Level FlightAware ADS-B
Fri 11:43:13 PM 41.9910 -75.4904 241° Southwest 421 484 34,000  Level FlightAware ADS-B
Fri 11:43:44 PM 41.9619 -75.5613 241° Southwest 421 484 34,000  Level FlightAware ADS-B
Fri 11:44:14 PM 41.9328 -75.6298 240° Southwest 422 486 34,000  Level FlightAware ADS-B
Fri 11:44:45 PM 41.9039 -75.7007 241° Southwest 422 486 34,000  Level FlightAware ADS-B
Fri 11:45:15 PM 41.8749 -75.7693 240° Southwest 423 487 34,000  Level FlightAware ADS-B
Fri 11:45:45 PM 41.8462 -75.8381 241° Southwest 423 487 34,000  Level FlightAware ADS-B
Fri 11:46:17 PM 41.8162 -75.9115 241° Southwest 425 489 34,000  Level FlightAware ADS-B
Fri 11:46:47 PM 41.7870 -75.9803 240° Southwest 425 489 34,000  Level FlightAware ADS-B
Fri 11:47:19 PM 41.7563 -76.0537 241° Southwest 424 488 34,000  Level FlightAware ADS-B
Fri 11:47:50 PM 41.7267 -76.1247 241° Southwest 424 488 34,000  Level FlightAware ADS-B
Fri 11:48:22 PM 41.6957 -76.1976 240° Southwest 423 487 34,000  Level FlightAware ADS-B
Fri 11:48:54 PM 41.6649 -76.2705 241° Southwest 423 487 34,000  Level FlightAware ADS-B
Fri 11:49:25 PM 41.6356 -76.3409 241° Southwest 424 488 34,000  Level FlightAware ADS-B
Fri 11:49:55 PM 41.6062 -76.4092 240° Southwest 424 488 34,000  Level FlightAware ADS-B
Fri 11:50:25 PM 41.5768 -76.4773 240° Southwest 424 488 34,000  Level FlightAware ADS-B
Fri 11:50:56 PM 41.5471 -76.5477 241° Southwest 423 487 34,000  Level FlightAware ADS-B
Fri 11:51:27 PM 41.5170 -76.6181 240° Southwest 422 486 34,000  Level FlightAware ADS-B
Fri 11:51:58 PM 41.4876 -76.6881 241° Southwest 422 486 34,000  Level FlightAware ADS-B
Fri 11:52:16 PM 41.4700 -76.7287 240° Southwest 423 487 34,000  Level FlightAware ADS-B
Fri 11:52:25 PM 41.4619 -76.7498 243° Southwest 425 489 34,000  Level FlightAware ADS-B
Fri 11:52:55 PM 41.4412 -76.8238 250° West 428 493 34,000  Level FlightAware ADS-B
Fri 11:53:25 PM 41.4218 -76.8983 251° West 427 491 34,000  Level FlightAware ADS-B
Fri 11:53:58 PM 41.4006 -76.9803 251° West 427 491 34,000  Level FlightAware ADS-B
Fri 11:54:29 PM 41.3802 -77.0571 251° West 427 491 34,000  Level FlightAware ADS-B
Fri 11:55:01 PM 41.3593 -77.1360 251° West 427 491 34,000  Level FlightAware ADS-B
Fri 11:55:32 PM 41.3382 -77.2128 250° West 428 493 34,000  Level FlightAware ADS-B
Fri 11:56:08 PM 41.3144 -77.3018 250° West 428 493 34,000  Level FlightAware ADS-B
Fri 11:56:56 PM 41.2840 -77.4160 251° West 428 493 34,000  Level FlightAware ADS-B
Fri 11:57:32 PM 41.2600 -77.5050 250° West 429 494 34,000  Level FlightAware ADS-B
Fri 11:57:54 PM 41.2441 -77.5644 250° West 428 493 34,000  Level FlightAware ADS-B
Fri 11:58:26 PM 41.2226 -77.6434 250° West 428 493 34,000  Level FlightAware ADS-B
Fri 11:59:06 PM 41.1960 -77.7400 250° West 428 493 34,000  Level FlightAware ADS-B
Fri 11:59:26 PM 41.1816 -77.7915 250° West 428 493 34,000  Level FlightAware ADS-B
Sat 12:00:24 AM 41.1425 -77.9343 250° West 427 491 34,000  Level FlightAware ADS-B
Sat 12:01:08 AM 41.1160 -78.0300 250° West 429 494 34,000  Level FlightAware ADS-B
Sat 12:01:53 AM 41.0850 -78.1420 250° West 432 497 34,000  Level FlightAware ADS-B
Sat 12:02:38 AM 41.0550 -78.2480 249° West 428 493 34,000  Level FlightAware ADS-B
Sat 12:03:08 AM 41.0340 -78.3260 250° West 425 489 34,000  Level FlightAware ADS-B
Sat 12:03:53 AM 41.0020 -78.4390 249° West 429 494 34,000  Level FlightAware ADS-B
Sat 12:04:33 AM 40.9740 -78.5380 249° West 431 496 34,000  Level FlightAware ADS-B
Sat 12:05:08 AM 40.9500 -78.6220 249° West 430 495 34,000  Level FlightAware ADS-B
Sat 12:05:48 AM 40.9220 -78.7200 249° West 429 494 34,000  Level FlightAware ADS-B
Sat 12:06:33 AM 40.8920 -78.8280 250° West 427 491 34,000  Level FlightAware ADS-B
Sat 12:07:13 AM 40.8630 -78.9300 249° West 426 490 34,000  Level FlightAware ADS-B
Sat 12:07:58 AM 40.8330 -79.0350 249° West 427 491 34,000  Level FlightAware ADS-B
Sat 12:08:38 AM 40.8060 -79.1280 249° West 429 494 34,000  Level FlightAware ADS-B
Sat 12:09:23 AM 40.7720 -79.2450 249° West 431 496 34,000  Level FlightAware ADS-B
Sat 12:09:58 AM 40.7490 -79.3240 249° West 433 498 34,000  Level FlightAware ADS-B
Sat 12:10:38 AM 40.7210 -79.4210 249° West 436 502 34,000  Level FlightAware ADS-B
Sat 12:11:18 AM 40.6890 -79.5280 249° West 442 509 34,000  Level FlightAware ADS-B
Sat 12:12:02 AM 40.6530 -79.6520 249° West 446 513 34,000  Level FlightAware ADS-B
Sat 12:12:38 AM 40.6250 -79.7450 248° West 447 514 34,000  Level FlightAware ADS-B
Sat 12:13:22 AM 40.5920 -79.8570 249° West 447 514 34,000  Level FlightAware ADS-B
Sat 12:14:00 AM 40.5630 -79.9530 248° West 446 513 34,000  Level FlightAware ADS-B
Sat 12:14:46 AM 40.5290 -80.0690 249° West 443 510 34,000  Level FlightAware ADS-B
Sat 12:15:36 AM 40.4920 -80.1940 249° West 440 506 34,000  Level FlightAware ADS-B
Sat 12:16:15 AM 40.4630 -80.2900 248° West 438 504 34,000  Level FlightAware ADS-B
Sat 12:16:59 AM 40.4300 -80.3960 248° West 437 503 34,000  Level FlightAware ADS-B
Sat 12:17:39 AM 40.4000 -80.4980 249° West 438 504 34,000  Level FlightAware ADS-B
Sat 12:18:24 AM 40.3670 -80.6060 248° West 439 505 34,000  Level FlightAware ADS-B
Sat 12:18:59 AM 40.3390 -80.6950 248° West 440 506 34,000  Level FlightAware ADS-B
Sat 12:19:40 AM 40.3080 -80.7970 248° West 441 507 34,000  Level FlightAware ADS-B
Sat 12:20:19 AM 40.2780 -80.8940 248° West 447 514 34,000  Level FlightAware ADS-B
Sat 12:20:59 AM 40.2470 -80.9950 248° West 454 522 34,000  Level FlightAware ADS-B
Sat 12:21:45 AM 40.2110 -81.1120 248° West 454 522 34,000  Level FlightAware ADS-B
Sat 12:22:28 AM 40.1770 -81.2190 247° West 454 522 34,000  Level FlightAware ADS-B
Sat 12:23:08 AM 40.1450 -81.3230 248° West 453 521 34,000  Level FlightAware ADS-B
Sat 12:23:49 AM 40.1120 -81.4270 247° West 453 521 34,000  Level FlightAware ADS-B
Sat 12:24:26 AM 40.0830 -81.5180 247° West 454 522 34,000  Level FlightAware ADS-B
Sat 12:25:06 AM 40.0500 -81.6220 248° West 462 532 34,000  Level FlightAware ADS-B
Sat 12:25:49 AM 40.0140 -81.7340 247° West 469 540 34,000  Level FlightAware ADS-B
Sat 12:26:24 AM 39.9860 -81.8260 248° West 473 544 34,000  Level FlightAware ADS-B
Sat 12:27:04 AM 39.9530 -81.9290 247° West 477 549 34,000  Level FlightAware ADS-B
Sat 12:27:48 AM 39.9140 -82.0490 247° West 481 554 34,000  Level FlightAware ADS-B
Sat 12:28:32 AM 39.8760 -82.1660 247° West 484 557 34,000  Level FlightAware ADS-B
Sat 12:29:12 AM 39.8410 -82.2740 247° West 487 560 34,000  Level FlightAware ADS-B
Sat 12:29:57 AM 39.8020 -82.3930 247° West 487 560 34,000  Level FlightAware ADS-B
Sat 12:30:36 AM 39.7670 -82.5000 247° West 487 560 34,000  Level FlightAware ADS-B
Sat 12:31:09 AM 39.7390 -82.5870 247° West 488 562 34,000  Level FlightAware ADS-B
Sat 12:31:54 AM 39.6980 -82.7110 247° West 490 564 34,000  Level FlightAware ADS-B
Sat 12:32:34 AM 39.6570 -82.8130 242° Southwest 491 565 34,000  Level FlightAware ADS-B
Sat 12:33:10 AM 39.6170 -82.9090 242° Southwest 494 568 34,000  Level FlightAware ADS-B
Sat 12:33:54 AM 39.5690 -83.0210 241° Southwest 501 577 34,000  Level FlightAware ADS-B
Sat 12:34:34 AM 39.5250 -83.1270 242° Southwest 504 580 34,000  Level FlightAware ADS-B
Sat 12:35:18 AM 39.4760 -83.2470 242° Southwest 506 582 34,000  Level FlightAware ADS-B
Sat 12:35:58 AM 39.4300 -83.3540 241° Southwest 505 581 34,000 -214 Level FlightAware ADS-B
Sat 12:36:42 AM 39.3810 -83.4700 241° Southwest 506 582 33,700 -1,071 Descending FlightAware ADS-B
Sat 12:37:22 AM 39.3370 -83.5740 241° Southwest 505 581 32,500 -2,368 Descending FlightAware ADS-B
Sat 12:37:58 AM 39.2960 -83.6720 242° Southwest 515 593 30,700 -1,769 Descending FlightAware ADS-B
Sat 12:38:40 AM 39.2490 -83.7890 243° Southwest 527 606 30,200 -500 Descending FlightAware ADS-B
Sat 12:39:22 AM 39.2010 -83.9060 242° Southwest 529 609 30,000 -228 Descending FlightAware ADS-B
Sat 12:39:59 AM 39.1590 -84.0060 242° Southwest 529 609 29,900 -923 Descending FlightAware ADS-B
Sat 12:40:40 AM 39.1110 -84.1230 242° Southwest 531 611 28,800 -1,823 Descending FlightAware ADS-B
Sat 12:41:18 AM 39.0690 -84.2230 242° Southwest 528 608 27,500 -987 Descending FlightAware ADS-B
Sat 12:41:59 AM 39.0290 -84.3200 242° Southwest 528 608 27,500  Level FlightAware ADS-B
Sat 12:42:59 AM 38.9710 -84.4620 242° Southwest 528 608 27,500 -3,577 Level FlightAware ADS-B
Sat 12:44:35 AM 38.8580 -84.7280 241° Southwest 487 560 18,200 -4,228 Descending FlightAware ADS-B
Sat 12:45:28 AM 38.8100 -84.8420 242° Southwest 455 524 17,000 -2,824 Descending FlightAware ADS-B
Sat 12:46:00 AM 38.7760 -84.9190 240° Southwest 438 504 14,200 -3,261 Descending FlightAware ADS-B
Sat 12:47:00 AM 38.6850 -85.0240 222° Southwest 400 460 12,000 -1,104 Descending FlightAware ADS-B
Sat 12:48:05 AM 38.5920 -85.1140 217° Southwest 397 457 11,900 -56 Descending FlightAware ADS-B
Sat 12:48:47 AM 38.5240 -85.1790 217° Southwest 402 463 11,900  Level FlightAware ADS-B
Sat 12:49:31 AM 38.4620 -85.2390 217° Southwest 363 418 11,900 -357 Level FlightAware ADS-B
Sat 12:50:11 AM 38.4110 -85.2870 216° Southwest 331 381 11,400 -1,024 Descending FlightAware ADS-B
Sat 12:50:53 AM 38.3600 -85.3360 217° Southwest 318 366 10,500 -1,371 Descending FlightAware ADS-B
Sat 12:51:21 AM 38.3270 -85.3670 216° Southwest 315 362 9,800 -1,448 Descending FlightAware ADS-B
Sat 12:51:51 AM 38.2930 -85.3990 216° Southwest 307 353 9,100 -1,440 Descending FlightAware ADS-B
Sat 12:52:11 AM 38.2700 -85.4220 218° Southwest 302 348 8,600 -2,125 Descending FlightAware ADS-B
Sat 12:52:39 AM 38.2390 -85.4510 216° Southwest 297 342 7,400 -2,571 Descending FlightAware ADS-B
Sat 12:53:07 AM 38.2080 -85.4800 216° Southwest 294 338 6,200 -2,250 Descending FlightAware ADS-B
Sat 12:53:35 AM 38.1770 -85.5090 216° Southwest 291 335 5,300 -1,773 Descending FlightAware ADS-B
Sat 12:53:51 AM 38.1590 -85.5250 215° Southwest 291 335 4,900 -1,500 Descending FlightAware ADS-B
Sat 12:54:11 AM 38.1380 -85.5450 217° Southwest 288 331 4,400 -1,375 Descending FlightAware ADS-B
Sat 12:54:39 AM 38.1080 -85.5740 217° Southwest 284 327 3,800 -1,071 Descending FlightAware ADS-B
Sat 12:55:07 AM 38.0800 -85.6010 217° Southwest 269 310 3,400 -857 Descending FlightAware ADS-B
Sat 12:55:35 AM 38.0570 -85.6320 227° Southwest 253 291 3,000 -1,269 Descending FlightAware ADS-B
Sat 12:55:59 AM 38.0460 -85.6650 247° West 233 268 2,300 -1,688 Descending FlightAware ADS-B
Sat 12:56:07 AM 38.0450 -85.6730 261° West 227 261 2,100 -857 Descending FlightAware ADS-B
Sat 12:56:27 AM 38.0540 -85.6940 299° West 185 213 1,900 -667 Descending FlightAware ADS-B
Sat 12:56:43 AM 38.0660 -85.6990 342° North 167 192 1,700  Descending FlightAware ADS-B
Sat 12:57:11 AM 38.0870 -85.7010 356° North 150 173 1,900  Climbing FlightAware ADS-B
Sat 12:57:39 AM 38.1030 -85.7050 349° North 129 148 1,700 -643 Descending FlightAware ADS-B
Sat 12:58:07 AM 38.1200 -85.7090 350° North 126 145 1,300 -818 Descending FlightAware ADS-B
Sat 12:58:23 AM 38.1290 -85.7120 345° North 123 142 1,100 -682 Descending FlightAware ADS-B
Sat 12:58:51 AM 38.1450 -85.7170 346° North 121 139 800 -625 Descending FlightAware ADS-B
Sat 12:59:11 AM 38.1560 -85.7210 344° North 125 144 600 -387 Descending FlightAware ADS-B
Sat 12:59:53 AM 38.1780 -85.7280 346° North 127 146 400 -286 Descending FlightAware ADS-B
Sat 01:00:24 AM 38.1810 -85.7300 332° Northwest 33 38 -774 Descending FlightAware ADS-B
Sat 01:00:49 AM 38.1820 -85.7340 288° West 33 38  Level FlightAware ADS-B
Sat 01:02:48 AM 38.1790 -85.7390 233° Southwest 28 32  Level FlightAware ADS-B
Sat 01:03:34 AM 38.1810 -85.7460 290° West 26 30  Level FlightAware ADS-B
Sat 01:03:53 AM 38.1780 -85.7430 142° Southeast 27 31  Level FlightAware ADS-B
Sat 01:04:20 AM 38.1770 -85.7420 142° Southeast 33 38  Level FlightAware ADS-B
Sat 01:04:48 AM 38.1770 -85.7390 90° East 19 22  Level FlightAware ADS-B
Sat 01:05:30 AM 38.1750 -85.7340 117° Southeast 33 38  Level FlightAware ADS-B

Login

Don't have an account? Register now (free) for customized features, flight alerts, and more!